Time;durP1;ratioP1;P1;durP2;ratioP2;P2;SDS_P1;SDS_P2;PMS_P1;PMS_P2;Temp;Humidity;BMP_temperature;BMP_pressure;BME280_temperature;BME280_humidity;BME280_pressure;Samples;Min_cycle;Max_cycle;Signal;HPM_P1;HPM_P2
2023/03/01 00:01:13;;;;;;;16.42;8.00;;;0.70;63.50;;;;;;9180280;19;20014;-62
2023/03/01 00:04:17;;;;;;;15.60;7.43;;;0.70;63.60;;;;;;9182753;19;20078;-61
2023/03/01 00:07:23;;;;;;;10.27;5.90;;;0.70;63.60;;;;;;9180380;19;20021;-61
2023/03/01 00:10:29;;;;;;;9.55;6.13;;;0.70;63.60;;;;;;9182025;19;20021;-61
2023/03/01 00:13:36;;;;;;;11.68;5.93;;;0.70;63.70;;;;;;9180970;19;20037;-61
2023/03/01 00:16:42;;;;;;;12.88;5.78;;;0.70;63.70;;;;;;9182794;19;20479;-62
2023/03/01 00:19:48;;;;;;;13.88;5.25;;;0.60;63.70;;;;;;9175482;19;20011;-61
2023/03/01 00:22:53;;;;;;;8.93;4.63;;;0.60;64.40;;;;;;9179795;19;20006;-61
2023/03/01 00:26:01;;;;;;;12.52;5.45;;;0.60;63.70;;;;;;9180067;19;20017;-61
2023/03/01 00:29:05;;;;;;;15.68;5.07;;;0.60;63.80;;;;;;9181413;19;20034;-61
2023/03/01 00:32:11;;;;;;;10.25;4.47;;;0.50;63.80;;;;;;9181553;19;20018;-61
2023/03/01 00:35:15;;;;;;;9.73;5.15;;;0.50;63.80;;;;;;9180609;19;20356;-63
2023/03/01 00:38:21;;;;;;;9.98;5.35;;;0.50;63.80;;;;;;9179739;19;20352;-63
2023/03/01 00:41:28;;;;;;;7.32;5.22;;;0.50;63.90;;;;;;9179279;19;20015;-63
2023/03/01 00:44:34;;;;;;;13.40;5.25;;;0.50;63.90;;;;;;9179813;19;20019;-63
2023/03/01 00:47:38;;;;;;;10.00;4.63;;;0.40;63.80;;;;;;9180111;19;20025;-63
2023/03/01 00:50:44;;;;;;;11.30;4.88;;;0.40;63.90;;;;;;9179214;19;20472;-62
2023/03/01 00:53:48;;;;;;;8.32;4.53;;;0.40;64.00;;;;;;9181407;19;20014;-63
2023/03/01 00:56:56;;;;;;;10.15;4.80;;;0.30;63.90;;;;;;9182090;19;20022;-63
2023/03/01 01:00:00;;;;;;;15.13;5.18;;;0.30;63.90;;;;;;9181020;19;20749;-63
2023/03/01 01:03:07;;;;;;;7.85;4.63;;;0.30;64.00;;;;;;9178475;19;20018;-63
2023/03/01 01:06:16;;;;;;;9.52;4.57;;;0.30;64.00;;;;;;9180787;19;20023;-63
2023/03/01 01:09:22;;;;;;;7.72;4.60;;;0.20;64.00;;;;;;9177120;19;20484;-63
2023/03/01 01:12:28;;;;;;;11.15;5.03;;;0.20;64.70;;;;;;9179058;19;20070;-64
2023/03/01 01:15:36;;;;;;;8.05;4.75;;;0.10;64.10;;;;;;9180997;19;20364;-64
2023/03/01 01:18:40;;;;;;;7.30;4.63;;;0.10;64.10;;;;;;9175200;19;20109;-64
2023/03/01 01:21:48;;;;;;;7.82;4.30;;;0.10;64.10;;;;;;9177308;19;20010;-64
2023/03/01 01:24:52;;;;;;;7.90;4.93;;;0.10;64.20;;;;;;9174193;19;20125;-63
2023/03/01 01:28:00;;;;;;;9.57;4.72;;;0.10;64.20;;;;;;9179443;19;20025;-63
2023/03/01 01:31:04;;;;;;;7.78;4.80;;;0.00;64.10;;;;;;9178621;19;20144;-64
2023/03/01 01:34:15;;;;;;;7.65;4.25;;;0.00;64.10;;;;;;9178205;19;20371;-63
2023/03/01 01:37:20;;;;;;;8.38;4.85;;;0.00;64.20;;;;;;9180550;19;20089;-63
2023/03/01 01:40:26;;;;;;;8.57;4.70;;;0.00;64.20;;;;;;9177883;19;20019;-63
2023/03/01 01:43:35;;;;;;;12.85;5.03;;;-0.10;64.20;;;;;;9175302;19;20025;-63
2023/03/01 01:46:43;;;;;;;12.75;4.63;;;-0.10;64.20;;;;;;9178064;19;20014;-63
2023/03/01 01:49:50;;;;;;;8.15;4.90;;;-0.10;64.30;;;;;;9178439;19;20380;-63
2023/03/01 01:52:57;;;;;;;6.13;4.15;;;-0.20;64.30;;;;;;9178029;19;20018;-63
2023/03/01 01:56:03;;;;;;;10.95;4.88;;;-0.20;64.30;;;;;;9176974;19;20014;-63
2023/03/01 01:59:11;;;;;;;7.53;4.90;;;-0.20;64.30;;;;;;9178666;19;20483;-63
2023/03/01 02:02:16;;;;;;;8.98;4.93;;;-0.30;64.30;;;;;;9176153;19;20359;-64
2023/03/01 02:05:28;;;;;;;6.63;4.30;;;-0.20;64.30;;;;;;9179689;19;20021;-63
2023/03/01 02:08:35;;;;;;;10.00;5.15;;;-0.30;64.30;;;;;;9176642;19;20380;-63
2023/03/01 02:11:42;;;;;;;8.02;4.25;;;-0.30;64.30;;;;;;9178824;19;20522;-63
2023/03/01 02:14:48;;;;;;;8.00;4.53;;;-0.30;64.40;;;;;;9176473;19;20038;-63
2023/03/01 02:17:54;;;;;;;10.38;5.28;;;-0.30;64.60;;;;;;9176589;19;20322;-63
2023/03/01 02:21:10;;;;;;;8.15;4.90;;;-0.30;64.50;;;;;;9169255;19;20018;-63
2023/03/01 02:24:26;;;;;;;10.00;4.63;;;-0.40;64.40;;;;;;9177255;19;20349;-64
2023/03/01 02:27:38;;;;;;;6.70;4.15;;;-0.40;64.40;;;;;;9176259;19;20471;-63
2023/03/01 02:34:08;;;;;;;9.93;4.45;;;-0.40;64.50;;;;;;9177220;19;20010;-63
2023/03/01 02:37:20;;;;;;;8.95;4.95;;;-0.40;64.50;;;;;;9176009;19;20019;-63
2023/03/01 02:40:24;;;;;;;9.07;4.70;;;-0.50;64.50;;;;;;9175563;19;20022;-62
2023/03/01 02:43:33;;;;;;;6.05;4.63;;;-0.50;64.60;;;;;;9174529;19;20018;-63
2023/03/01 02:46:44;;;;;;;8.43;4.60;;;-0.50;64.60;;;;;;9176165;19;20033;-63
2023/03/01 02:49:50;;;;;;;6.40;4.03;;;-0.50;64.60;;;;;;9175101;19;20345;-63
2023/03/01 02:52:59;;;;;;;9.63;4.55;;;-0.60;64.60;;;;;;9176050;19;20018;-62
2023/03/01 02:56:12;;;;;;;7.50;4.57;;;-0.60;64.60;;;;;;9174853;19;20094;-63
2023/03/01 02:59:19;;;;;;;7.88;4.57;;;-0.60;64.70;;;;;;9174849;19;20049;-62
2023/03/01 03:02:37;;;;;;;10.93;4.53;;;-0.60;64.70;;;;;;9173708;19;20110;-63
2023/03/01 03:06:08;;;;;;;10.50;4.90;;;-0.70;64.70;;;;;;9174789;19;20022;-63
2023/03/01 03:09:15;;;;;;;9.43;4.40;;;-0.70;64.70;;;;;;9172260;19;20022;-63
2023/03/01 03:12:20;;;;;;;7.93;4.55;;;-0.70;64.70;;;;;;9175647;19;20018;-63
2023/03/01 03:15:27;;;;;;;13.35;5.00;;;-0.70;64.80;;;;;;9174927;19;20025;-63
2023/03/01 03:18:34;;;;;;;8.80;4.88;;;-0.70;64.80;;;;;;9171653;19;20016;-61
2023/03/01 03:21:40;;;;;;;10.90;5.88;;;-0.80;64.80;;;;;;9173764;19;20014;-61
2023/03/01 03:24:46;;;;;;;8.68;4.53;;;-0.80;64.80;;;;;;9173937;19;20014;-61
2023/03/01 03:27:56;;;;;;;7.40;4.70;;;-0.80;64.80;;;;;;9175142;19;20015;-61
2023/03/01 03:31:03;;;;;;;9.07;4.35;;;-0.80;64.90;;;;;;9173596;19;21091;-61
2023/03/01 03:34:17;;;;;;;9.00;4.72;;;-0.80;64.90;;;;;;9173713;19;20027;-61
2023/03/01 03:40:41;;;;;;;11.88;5.55;;;-0.90;64.90;;;;;;9173148;19;20359;-60
2023/03/01 03:43:46;;;;;;;7.35;4.53;;;-0.90;65.00;;;;;;9172408;19;20017;-61
2023/03/01 03:46:52;;;;;;;9.27;5.40;;;-0.90;65.00;;;;;;9173209;19;20029;-61
2023/03/01 03:49:58;;;;;;;9.90;5.32;;;-0.90;65.10;;;;;;9178854;19;20025;-61
2023/03/01 03:53:06;;;;;;;8.13;5.07;;;-0.90;65.10;;;;;;9182700;19;20022;-61
2023/03/01 03:56:10;;;;;;;10.68;4.88;;;-0.90;65.10;;;;;;9181814;19;20121;-61
2023/03/01 03:59:17;;;;;;;9.40;5.15;;;-1.00;65.10;;;;;;9183010;19;20017;-61
2023/03/01 04:02:21;;;;;;;12.00;5.72;;;-1.00;65.10;;;;;;9182012;19;20014;-61
2023/03/01 04:05:30;;;;;;;9.00;5.15;;;-1.00;65.10;;;;;;9181704;19;20471;-60
2023/03/01 04:08:34;;;;;;;8.00;5.30;;;-1.00;65.20;;;;;;9180736;19;20019;-60
2023/03/01 04:11:40;;;;;;;8.98;5.78;;;-1.00;65.20;;;;;;9180896;19;20026;-60
2023/03/01 04:14:44;;;;;;;12.60;5.70;;;-1.00;65.20;;;;;;9181087;19;20018;-60
2023/03/01 04:17:52;;;;;;;8.70;5.65;;;-1.10;65.20;;;;;;9180908;19;20014;-60
2023/03/01 04:20:58;;;;;;;13.73;5.85;;;-1.10;65.30;;;;;;9177241;19;20025;-61
2023/03/01 04:24:04;;;;;;;11.30;5.22;;;-1.10;65.20;;;;;;9178352;19;20050;-60
2023/03/01 04:27:08;;;;;;;12.80;5.03;;;-1.10;65.30;;;;;;9181988;19;20376;-60
2023/03/01 04:30:15;;;;;;;13.30;6.00;;;-1.10;65.30;;;;;;9181763;19;20041;-61
2023/03/01 04:33:19;;;;;;;8.90;5.10;;;-1.20;65.30;;;;;;9182692;19;20007;-60
2023/03/01 04:36:29;;;;;;;8.30;4.95;;;-1.10;65.40;;;;;;9182074;19;20015;-61
2023/03/01 04:39:45;;;;;;;8.60;5.25;;;-1.20;65.40;;;;;;9181760;19;20479;-61
2023/03/01 04:42:51;;;;;;;6.88;4.63;;;-1.20;65.40;;;;;;9179035;19;20752;-61
2023/03/01 04:45:55;;;;;;;9.23;5.22;;;-1.20;65.40;;;;;;9181249;19;20015;-61
2023/03/01 04:49:01;;;;;;;8.30;4.80;;;-1.20;65.40;;;;;;9179619;19;20021;-61
2023/03/01 04:52:07;;;;;;;10.48;5.47;;;-1.20;65.40;;;;;;9179886;19;20015;-61
2023/03/01 04:55:13;;;;;;;9.35;5.60;;;-1.30;65.40;;;;;;9179341;19;20089;-61
2023/03/01 04:58:17;;;;;;;12.40;5.82;;;-1.30;65.40;;;;;;9180227;19;20023;-61
2023/03/01 05:01:23;;;;;;;8.75;4.80;;;-1.30;65.40;;;;;;9178761;19;20029;-62
2023/03/01 05:04:28;;;;;;;9.32;5.28;;;-1.30;65.50;;;;;;9175907;19;20025;-62
2023/03/01 05:07:35;;;;;;;8.68;5.45;;;-1.30;65.50;;;;;;9177112;19;20021;-60
2023/03/01 05:10:40;;;;;;;13.05;5.70;;;-1.30;65.50;;;;;;9179858;19;20021;-59
2023/03/01 05:13:46;;;;;;;9.32;5.45;;;-1.40;65.50;;;;;;9180514;19;20017;-61
2023/03/01 05:16:50;;;;;;;11.57;6.18;;;-1.40;65.60;;;;;;9179199;19;20499;-60
2023/03/01 05:19:59;;;;;;;11.25;5.65;;;-1.40;65.60;;;;;;9174149;19;20007;-60
2023/03/01 05:23:06;;;;;;;9.77;5.47;;;-1.40;65.60;;;;;;9178793;19;20548;-61
2023/03/01 05:26:14;;;;;;;10.55;5.30;;;-1.40;65.60;;;;;;9178205;19;20026;-61
2023/03/01 05:29:34;;;;;;;13.43;5.50;;;-1.50;65.60;;;;;;9179952;19;20018;-61
2023/03/01 05:32:42;;;;;;;10.77;5.95;;;-1.40;65.60;;;;;;9178804;19;20808;-60
2023/03/01 05:35:48;;;;;;;12.60;5.72;;;-1.50;65.70;;;;;;9179337;19;20010;-61
2023/03/01 05:38:56;;;;;;;10.40;5.68;;;-1.50;65.70;;;;;;9177793;19;20013;-61
2023/03/01 05:42:02;;;;;;;10.93;5.60;;;-1.50;65.70;;;;;;9179404;19;20011;-61
2023/03/01 05:45:09;;;;;;;12.35;5.85;;;-1.50;65.80;;;;;;9178292;19;20018;-61
2023/03/01 05:48:14;;;;;;;12.82;5.75;;;-1.60;65.70;;;;;;9180248;19;20026;-61
2023/03/01 05:51:22;;;;;;;14.05;5.90;;;-1.50;65.80;;;;;;9178330;19;20017;-60
2023/03/01 05:54:28;;;;;;;11.65;5.35;;;-1.60;65.80;;;;;;9178858;19;20017;-61
2023/03/01 05:57:33;;;;;;;10.32;5.35;;;-1.60;65.80;;;;;;9177153;19;20029;-61
2023/03/01 06:00:37;;;;;;;9.85;5.60;;;-1.60;65.90;;;;;;9176793;19;20031;-61
2023/03/01 06:03:43;;;;;;;10.75;5.13;;;-1.60;65.90;;;;;;9175833;19;20025;-61
2023/03/01 06:06:48;;;;;;;13.57;5.75;;;-1.60;65.90;;;;;;9177405;19;20007;-62
2023/03/01 06:09:55;;;;;;;11.20;5.43;;;-1.60;65.90;;;;;;9174899;19;20353;-61
2023/03/01 06:13:00;;;;;;;13.98;5.65;;;-1.70;65.80;;;;;;9173874;19;20018;-61
2023/03/01 06:16:07;;;;;;;16.90;7.20;;;-1.70;65.90;;;;;;9177713;19;20479;-61
2023/03/01 06:19:11;;;;;;;13.50;7.22;;;-1.70;65.90;;;;;;9173577;19;20037;-61
2023/03/01 06:22:17;;;;;;;17.48;6.40;;;-1.70;65.90;;;;;;9176421;19;20459;-62
2023/03/01 06:25:26;;;;;;;13.30;6.35;;;-1.70;66.00;;;;;;9176489;19;20014;-60
2023/03/01 06:28:32;;;;;;;9.70;5.47;;;-1.70;66.00;;;;;;9178356;19;20018;-60
2023/03/01 06:31:36;;;;;;;12.15;5.35;;;-1.70;66.00;;;;;;9177978;19;20407;-61
2023/03/01 06:34:42;;;;;;;9.00;5.18;;;-1.70;66.00;;;;;;9177860;19;20022;-61
2023/03/01 06:37:46;;;;;;;9.15;5.55;;;-1.80;66.00;;;;;;9177786;19;20022;-61
2023/03/01 06:40:58;;;;;;;9.02;5.47;;;-1.80;66.00;;;;;;9176016;19;20006;-61
2023/03/01 06:44:02;;;;;;;12.15;5.85;;;-1.80;66.10;;;;;;9173880;19;20399;-61
2023/03/01 06:47:08;;;;;;;10.45;5.38;;;-1.80;66.10;;;;;;9175311;19;20021;-61
2023/03/01 06:50:13;;;;;;;10.90;5.85;;;-1.80;66.10;;;;;;9177086;19;20027;-61
2023/03/01 06:53:19;;;;;;;9.63;5.55;;;-1.80;66.10;;;;;;9176480;19;20018;-61
2023/03/01 06:56:25;;;;;;;9.05;5.07;;;-1.80;66.10;;;;;;9175895;19;20011;-61
2023/03/01 06:59:31;;;;;;;14.18;6.35;;;-1.80;66.20;;;;;;9175371;19;20018;-61
2023/03/01 07:02:35;;;;;;;13.63;5.80;;;-1.80;66.20;;;;;;9170114;19;20014;-61
2023/03/01 07:05:41;;;;;;;21.25;6.05;;;-1.80;66.30;;;;;;9173595;19;20357;-61
2023/03/01 07:08:45;;;;;;;13.02;5.03;;;-1.80;66.30;;;;;;9171811;19;20363;-61
2023/03/01 07:11:53;;;;;;;11.13;5.88;;;-1.80;66.30;;;;;;9174231;19;20032;-60
2023/03/01 07:14:57;;;;;;;13.50;5.68;;;-1.80;66.40;;;;;;9172147;19;20038;-61
2023/03/01 07:18:03;;;;;;;13.80;5.60;;;-1.70;66.50;;;;;;9166959;19;20010;-60
2023/03/01 07:21:08;;;;;;;10.75;6.13;;;-1.70;66.50;;;;;;9160781;19;20653;-61
2023/03/01 07:24:14;;;;;;;10.50;5.50;;;-1.70;66.50;;;;;;9169706;19;20033;-61
2023/03/01 07:27:20;;;;;;;13.45;6.25;;;-1.70;66.50;;;;;;9173409;19;20672;-61
2023/03/01 07:30:28;;;;;;;12.45;6.43;;;-1.60;66.70;;;;;;9182794;19;20384;-61
2023/03/01 07:33:32;;;;;;;17.20;6.10;;;-1.60;66.80;;;;;;9176860;19;20046;-65
2023/03/01 07:36:39;;;;;;;14.93;6.50;;;-1.50;66.80;;;;;;9171353;19;20018;-61
2023/03/01 07:39:43;;;;;;;13.90;6.97;;;-1.40;67.00;;;;;;9173800;19;20018;-61
2023/03/01 07:42:51;;;;;;;13.98;6.68;;;-1.20;67.10;;;;;;9172642;19;20483;-61
2023/03/01 07:45:55;;;;;;;15.18;6.85;;;-1.20;67.20;;;;;;9173852;19;20018;-61
2023/03/01 07:49:01;;;;;;;11.45;6.90;;;-1.10;67.20;;;;;;9171890;19;20021;-63
2023/03/01 07:52:05;;;;;;;14.60;7.85;;;-0.90;67.30;;;;;;9170777;19;20840;-63
2023/03/01 07:55:12;;;;;;;18.63;8.10;;;-0.80;67.40;;;;;;9168281;19;20022;-65
2023/03/01 07:58:18;;;;;;;13.77;7.50;;;-0.60;67.50;;;;;;9166174;19;20036;-63
2023/03/01 08:01:24;;;;;;;14.70;8.27;;;-0.40;67.60;;;;;;9171546;19;20109;-60
2023/03/01 08:04:28;;;;;;;17.67;8.35;;;-0.20;67.60;;;;;;9165999;19;20298;-59
2023/03/01 08:07:35;;;;;;;16.45;6.90;;;0.10;67.80;;;;;;9169198;19;20892;-60
2023/03/01 08:10:39;;;;;;;10.80;6.15;;;0.30;67.80;;;;;;9173031;19;20018;-60
2023/03/01 08:13:50;;;;;;;14.77;7.53;;;0.60;67.80;;;;;;9168935;19;20029;-60
2023/03/01 08:16:57;;;;;;;18.55;7.65;;;0.80;67.80;;;;;;9175309;19;20037;-61
2023/03/01 08:20:05;;;;;;;12.50;6.97;;;1.10;67.80;;;;;;9170163;19;20050;-60
2023/03/01 08:23:10;;;;;;;11.85;6.00;;;1.30;67.70;;;;;;9174178;19;20014;-60
2023/03/01 08:26:18;;;;;;;10.73;6.43;;;1.60;67.80;;;;;;9172098;19;20010;-62
2023/03/01 08:29:25;;;;;;;13.20;6.53;;;1.80;67.70;;;;;;9170349;19;20363;-61
2023/03/01 08:32:31;;;;;;;11.05;6.25;;;2.10;67.80;;;;;;9172447;19;20026;-60
2023/03/01 08:35:36;;;;;;;14.73;7.30;;;2.30;67.70;;;;;;9173356;19;20018;-61
2023/03/01 08:38:42;;;;;;;11.73;6.55;;;2.60;67.70;;;;;;9179501;19;20011;-61
2023/03/01 08:41:48;;;;;;;12.15;6.50;;;2.80;67.70;;;;;;9179780;19;20017;-61
2023/03/01 08:44:56;;;;;;;12.18;6.53;;;3.10;67.70;;;;;;9178128;19;20010;-61
2023/03/01 08:48:00;;;;;;;11.98;6.07;;;3.30;67.70;;;;;;9179711;19;20069;-62
2023/03/01 08:51:12;;;;;;;10.73;5.45;;;3.50;67.70;;;;;;9179484;19;20483;-61
2023/03/01 08:54:18;;;;;;;14.52;6.47;;;3.80;67.60;;;;;;9176822;19;20018;-61
2023/03/01 08:57:24;;;;;;;13.10;6.30;;;4.00;67.60;;;;;;9181558;19;20013;-62
2023/03/01 09:00:30;;;;;;;10.20;7.15;;;4.20;67.50;;;;;;9172418;19;20490;-65
2023/03/01 09:03:36;;;;;;;9.32;5.82;;;4.40;67.50;;;;;;9169044;19;20371;-65
2023/03/01 09:06:40;;;;;;;8.02;5.30;;;4.70;67.50;;;;;;9174131;19;20780;-65
2023/03/01 09:09:47;;;;;;;9.77;5.47;;;4.90;67.40;;;;;;9168583;19;20622;-66
2023/03/01 09:12:51;;;;;;;7.65;4.93;;;5.10;67.40;;;;;;9173174;19;20018;-66
2023/03/01 09:15:58;;;;;;;9.85;4.57;;;5.40;67.40;;;;;;9173806;19;20006;-65
2023/03/01 09:19:02;;;;;;;8.93;3.97;;;5.60;67.20;;;;;;9170999;19;20022;-65
2023/03/01 09:22:08;;;;;;;9.52;4.97;;;5.80;67.10;;;;;;9174204;19;20014;-65
2023/03/01 09:25:12;;;;;;;9.05;4.70;;;6.00;67.00;;;;;;9169366;19;20877;-66
2023/03/01 09:28:18;;;;;;;7.43;4.45;;;6.10;66.90;;;;;;9172666;19;20003;-64
2023/03/01 09:31:35;;;;;;;11.43;4.53;;;6.30;66.90;;;;;;9172229;19;20399;-65
2023/03/01 09:37:58;;;;;;;10.10;4.63;;;6.70;66.80;;;;;;9179828;19;20011;-65
2023/03/01 09:41:04;;;;;;;11.23;4.70;;;6.90;66.60;;;;;;9170571;19;20015;-65
2023/03/01 09:44:16;;;;;;;9.15;4.70;;;7.00;66.50;;;;;;9173353;19;20051;-65
2023/03/01 09:47:28;;;;;;;10.40;4.65;;;7.20;66.40;;;;;;9169698;19;20337;-65
2023/03/01 09:50:40;;;;;;;9.25;4.45;;;7.40;66.40;;;;;;9176098;19;20112;-65
2023/03/01 09:53:46;;;;;;;6.97;3.95;;;7.60;66.20;;;;;;9179288;19;20014;-66
2023/03/01 09:56:55;;;;;;;;;;;7.80;66.10;;;;;;9179777;19;20407;-66
2023/03/01 10:00:24;;;;;;;9.75;3.60;;;7.90;66.00;;;;;;9177398;19;19915;-66
2023/03/01 10:03:36;;;;;;;6.85;3.80;;;8.10;65.90;;;;;;9172423;19;20030;-66
2023/03/01 10:06:46;;;;;;;7.72;3.92;;;8.20;65.70;;;;;;9179097;19;20016;-65
2023/03/01 10:09:51;;;;;;;7.28;3.65;;;8.40;65.60;;;;;;9172890;19;20296;-66
2023/03/01 10:12:58;;;;;;;10.20;4.18;;;8.50;65.40;;;;;;9177260;19;20086;-65
2023/03/01 10:16:11;;;;;;;7.80;4.10;;;8.60;65.30;;;;;;9177684;19;20018;-66
2023/03/01 10:19:26;;;;;;;8.77;4.18;;;8.70;65.10;;;;;;9168157;19;20022;-66
2023/03/01 10:22:32;;;;;;;7.55;4.20;;;8.70;64.90;;;;;;9178641;19;20070;-66
2023/03/01 10:25:49;;;;;;;7.63;4.30;;;8.80;64.80;;;;;;9173721;19;20018;-66
2023/03/01 10:29:03;;;;;;;7.72;4.05;;;8.90;64.60;;;;;;9176370;19;20014;-66
2023/03/01 10:32:11;;;;;;;8.60;4.18;;;9.00;64.60;;;;;;9176678;19;20033;-66
2023/03/01 10:35:23;;;;;;;13.73;4.03;;;9.10;64.60;;;;;;9167954;19;20030;-65
2023/03/01 10:38:33;;;;;;;5.22;3.15;;;9.20;64.30;;;;;;9169598;19;20007;-66
2023/03/01 10:41:53;;;;;;;7.43;3.60;;;9.30;64.30;;;;;;9175885;19;20015;-65
2023/03/01 10:45:00;;;;;;;6.72;3.45;;;9.40;64.20;;;;;;9171888;19;20011;-66
2023/03/01 10:48:24;;;;;;;9.95;4.05;;;9.50;64.10;;;;;;9176475;19;20547;-66
2023/03/01 10:51:32;;;;;;;8.25;3.58;;;9.50;63.60;;;;;;9175829;19;20014;-66
2023/03/01 10:54:36;;;;;;;7.00;3.78;;;9.70;63.80;;;;;;9176296;19;20020;-66
2023/03/01 10:57:42;;;;;;;6.10;3.78;;;9.70;63.60;;;;;;9177382;19;20010;-66
2023/03/01 11:00:52;;;;;;;8.70;4.00;;;9.80;63.40;;;;;;9181589;19;20090;-66
2023/03/01 11:04:13;;;;;;;8.15;3.85;;;9.80;63.20;;;;;;9181470;19;20019;-65
2023/03/01 11:07:19;;;;;;;10.38;3.60;;;9.90;62.90;;;;;;9181118;19;20035;-65
2023/03/01 11:10:29;;;;;;;8.90;3.60;;;9.90;62.90;;;;;;9181035;19;20018;-64
2023/03/01 11:13:33;;;;;;;6.97;3.05;;;9.90;62.90;;;;;;9180885;19;20013;-63
2023/03/01 11:16:41;;;;;;;4.15;2.72;;;9.90;62.70;;;;;;9178487;19;20022;-65
2023/03/01 11:20:01;;;;;;;7.00;2.83;;;9.90;62.50;;;;;;9173550;19;20360;-64
2023/03/01 11:23:14;;;;;;;5.55;2.60;;;9.90;62.50;;;;;;9180309;19;20018;-64
2023/03/01 11:26:20;;;;;;;5.95;2.92;;;9.90;62.40;;;;;;9172710;19;20382;-65
2023/03/01 11:29:32;;;;;;;5.13;2.70;;;9.90;62.40;;;;;;9174295;19;20010;-63
2023/03/01 11:33:03;;;;;;;6.88;2.88;;;9.80;62.10;;;;;;9167088;19;20018;-64
2023/03/01 11:36:17;;;;;;;5.90;2.90;;;9.80;62.10;;;;;;9163421;19;20106;-64
2023/03/01 11:39:32;;;;;;;5.25;3.08;;;9.90;62.00;;;;;;9167358;19;20026;-64
2023/03/01 11:42:50;;;;;;;7.55;3.55;;;9.80;61.80;;;;;;9167109;19;20021;-64
2023/03/01 11:46:08;;;;;;;7.43;3.25;;;9.80;61.80;;;;;;9165281;19;20018;-64
2023/03/01 11:49:41;;;;;;;4.57;2.63;;;9.80;61.70;;;;;;9166602;19;20264;-65
2023/03/01 11:52:56;;;;;;;6.63;3.20;;;9.80;61.70;;;;;;9166623;19;20102;-64
2023/03/01 11:56:18;;;;;;;8.63;3.35;;;9.80;61.70;;;;;;9165764;19;20021;-64
2023/03/01 11:59:53;;;;;;;4.85;2.70;;;9.90;61.50;;;;;;9173148;19;20025;-64
2023/03/01 12:03:22;;;;;;;5.70;3.08;;;9.90;61.30;;;;;;9176020;19;20017;-64
2023/03/01 12:06:45;;;;;;;5.28;2.65;;;9.90;61.40;;;;;;9178922;19;20078;-63
2023/03/01 12:10:08;;;;;;;7.28;3.55;;;9.90;61.40;;;;;;9175369;19;20372;-64
2023/03/01 12:13:42;;;;;;;6.78;2.70;;;9.90;61.20;;;;;;9178523;19;20034;-64
2023/03/01 12:17:11;;;;;;;7.78;3.05;;;9.90;61.00;;;;;;9178815;19;20051;-65
2023/03/01 12:20:27;;;;;;;7.05;3.35;;;10.00;61.20;;;;;;9173636;19;20404;-65
2023/03/01 12:24:03;;;;;;;5.13;2.67;;;10.00;61.10;;;;;;9179486;19;20387;-64
2023/03/01 12:27:29;;;;;;;7.72;3.00;;;10.10;60.90;;;;;;9179121;19;20015;-64
2023/03/01 12:30:51;;;;;;;7.47;2.95;;;10.10;61.10;;;;;;9178640;19;20022;-64
2023/03/01 12:34:03;;;;;;;6.40;2.92;;;10.10;60.80;;;;;;9179932;19;20088;-64
2023/03/01 12:37:17;;;;;;;;;;;10.10;60.90;;;;;;9179675;19;20010;-64
2023/03/01 12:40:41;;;;;;;5.55;3.17;;;10.20;61.10;;;;;;9177335;19;19942;-64
2023/03/01 12:44:00;;;;;;;6.25;3.20;;;10.20;61.70;;;;;;9176989;19;20022;-64
2023/03/01 12:47:17;;;;;;;6.53;3.47;;;10.20;60.90;;;;;;9179035;19;20475;-64
2023/03/01 12:50:27;;;;;;;7.97;3.08;;;10.30;60.70;;;;;;9177849;19;20372;-64
2023/03/01 12:53:40;;;;;;;8.65;2.92;;;10.30;60.80;;;;;;9179177;19;20035;-65
2023/03/01 12:56:51;;;;;;;7.38;3.53;;;10.30;60.60;;;;;;9177188;19;20029;-65
2023/03/01 13:00:09;;;;;;;10.70;3.40;;;10.30;60.60;;;;;;9178476;19;20012;-65
2023/03/01 13:03:26;;;;;;;5.60;3.22;;;10.20;60.40;;;;;;9177874;19;20018;-64
2023/03/01 13:06:37;;;;;;;7.82;3.20;;;10.20;60.40;;;;;;9177787;19;20099;-64
2023/03/01 13:10:01;;;;;;;8.88;3.05;;;10.10;60.30;;;;;;9175070;19;20498;-64
2023/03/01 13:13:20;;;;;;;5.95;3.17;;;10.00;60.30;;;;;;9176210;19;20010;-64
2023/03/01 13:16:50;;;;;;;8.57;3.80;;;9.90;60.00;;;;;;9177799;19;20022;-64
2023/03/01 13:20:01;;;;;;;10.35;3.38;;;9.80;59.90;;;;;;9169629;19;20475;-64
2023/03/01 13:23:12;;;;;;;12.20;3.40;;;9.70;60.20;;;;;;9177883;19;20014;-64
2023/03/01 13:26:17;;;;;;;8.35;3.08;;;9.60;60.20;;;;;;9175919;19;20011;-64
2023/03/01 13:29:28;;;;;;;8.73;3.28;;;9.50;60.30;;;;;;9177810;19;20030;-64
2023/03/01 13:32:33;;;;;;;8.30;2.85;;;9.40;60.20;;;;;;9178032;19;20031;-64
2023/03/01 13:35:51;;;;;;;7.35;3.05;;;9.30;60.20;;;;;;9174163;19;20025;-64
2023/03/01 13:38:58;;;;;;;11.38;3.45;;;9.20;60.20;;;;;;9177796;19;20014;-64
2023/03/01 13:42:05;;;;;;;8.10;3.63;;;9.20;60.20;;;;;;9176126;19;20018;-63
2023/03/01 13:45:26;;;;;;;7.10;3.65;;;9.10;60.20;;;;;;9173646;19;20015;-64
2023/03/01 13:48:33;;;;;;;5.30;3.38;;;8.90;60.00;;;;;;9175985;19;20018;-64
2023/03/01 13:51:39;;;;;;;7.22;3.45;;;8.90;60.30;;;;;;9175285;19;20022;-64
2023/03/01 13:54:45;;;;;;;9.10;2.97;;;8.80;60.30;;;;;;9176689;19;20022;-63
2023/03/01 13:57:54;;;;;;;;;;;8.80;60.30;;;;;;9175109;19;20089;-64
2023/03/01 14:01:02;;;;;;;5.18;2.90;;;8.70;60.40;;;;;;9175125;19;19929;-64
2023/03/01 14:04:22;;;;;;;6.68;3.00;;;8.70;60.50;;;;;;9173246;19;20019;-64
2023/03/01 14:07:31;;;;;;;6.70;3.20;;;8.60;60.20;;;;;;9174161;19;20017;-65
2023/03/01 14:10:45;;;;;;;7.53;3.03;;;8.50;60.40;;;;;;9170236;19;20431;-65
2023/03/01 14:14:15;;;;;;;6.15;3.20;;;8.50;60.30;;;;;;9169164;19;20356;-66
2023/03/01 14:17:42;;;;;;;10.52;3.22;;;8.50;60.20;;;;;;9168039;19;20018;-66
2023/03/01 14:20:51;;;;;;;13.93;3.22;;;8.40;60.20;;;;;;9166010;19;20022;-65
2023/03/01 14:24:00;;;;;;;5.32;3.03;;;8.40;60.40;;;;;;9167079;19;20023;-65
2023/03/01 14:27:06;;;;;;;8.10;3.50;;;8.30;60.30;;;;;;9169312;19;20013;-66
2023/03/01 14:30:17;;;;;;;6.15;2.90;;;8.30;60.30;;;;;;9166206;19;20018;-65
2023/03/01 14:33:28;;;;;;;6.82;2.85;;;8.30;60.20;;;;;;9168843;19;20037;-66
2023/03/01 14:36:34;;;;;;;4.20;2.92;;;8.30;60.20;;;;;;9174126;19;20047;-65
2023/03/01 14:39:45;;;;;;;6.25;3.05;;;8.20;60.20;;;;;;9169813;19;20010;-66
2023/03/01 14:42:52;;;;;;;10.77;3.90;;;8.20;60.10;;;;;;9170263;19;20100;-66
2023/03/01 14:45:59;;;;;;;3.97;2.92;;;8.20;60.20;;;;;;9166719;19;20018;-66
2023/03/01 14:49:06;;;;;;;9.15;3.15;;;8.20;60.20;;;;;;9171768;19;20038;-66
2023/03/01 14:52:22;;;;;;;5.10;2.95;;;8.20;60.10;;;;;;9171427;19;20370;-65
2023/03/01 14:55:34;;;;;;;9.25;3.58;;;8.20;60.00;;;;;;9171450;19;20018;-66
2023/03/01 14:58:40;;;;;;;12.23;3.25;;;8.20;60.10;;;;;;9172282;19;20013;-66
2023/03/01 15:01:45;;;;;;;;;;;8.20;60.00;;;;;;9172531;19;20014;-66
2023/03/01 15:04:53;;;;;;;5.80;3.25;;;8.20;60.10;;;;;;9169135;19;19915;-66
2023/03/01 15:08:00;;;;;;;4.60;3.22;;;8.20;60.20;;;;;;9168346;19;20018;-66
2023/03/01 15:11:24;;;;;;;5.30;3.10;;;8.20;60.10;;;;;;9171229;19;20015;-66
2023/03/01 15:14:30;;;;;;;9.10;2.88;;;8.20;59.90;;;;;;9169766;19;20521;-66
2023/03/01 15:17:39;;;;;;;7.90;3.13;;;8.20;60.00;;;;;;9173418;19;20117;-66
2023/03/01 15:20:43;;;;;;;6.47;3.55;;;8.20;59.90;;;;;;9170351;19;20018;-66
2023/03/01 15:23:53;;;;;;;5.85;3.25;;;8.20;59.90;;;;;;9175138;19;20029;-66
2023/03/01 15:27:05;;;;;;;5.50;3.13;;;8.20;59.90;;;;;;9173553;19;20021;-66
2023/03/01 15:30:23;;;;;;;6.32;3.40;;;8.20;59.80;;;;;;9173345;19;20025;-66
2023/03/01 15:33:35;;;;;;;10.68;4.00;;;8.20;59.90;;;;;;9175327;19;20021;-66
2023/03/01 15:36:49;;;;;;;5.47;2.80;;;8.20;59.80;;;;;;9175261;19;20018;-66
2023/03/01 15:39:55;;;;;;;5.40;3.03;;;8.20;59.80;;;;;;9173572;19;20034;-66
2023/03/01 15:43:06;;;;;;;7.22;3.30;;;8.20;59.80;;;;;;9172951;19;20062;-66
2023/03/01 15:46:26;;;;;;;6.72;3.63;;;8.20;59.80;;;;;;9174990;19;20520;-66
2023/03/01 15:49:41;;;;;;;5.93;3.42;;;8.20;59.80;;;;;;9181646;19;20015;-66
2023/03/01 15:53:10;;;;;;;8.95;3.80;;;8.10;59.80;;;;;;9180366;19;20872;-66
2023/03/01 15:56:17;;;;;;;11.30;3.97;;;8.10;59.90;;;;;;9182620;19;20349;-66
2023/03/01 15:59:22;;;;;;;;;;;8.10;59.90;;;;;;9182742;19;20125;-66
2023/03/01 16:02:28;;;;;;;7.85;3.67;;;8.10;60.50;;;;;;9180471;19;19919;-65
2023/03/01 16:05:36;;;;;;;6.07;3.10;;;8.00;59.90;;;;;;9178385;19;20014;-66
2023/03/01 16:08:42;;;;;;;9.23;3.45;;;8.00;60.50;;;;;;9180629;19;20022;-66
2023/03/01 16:11:51;;;;;;;10.95;3.95;;;7.90;59.90;;;;;;9182185;19;20029;-70
2023/03/01 16:15:00;;;;;;;6.57;3.90;;;7.90;59.80;;;;;;9176224;19;20019;-68
2023/03/01 16:18:05;;;;;;;5.60;3.05;;;7.90;59.80;;;;;;9181352;19;20022;-68
2023/03/01 16:21:15;;;;;;;6.38;3.35;;;7.90;59.90;;;;;;9175720;19;20033;-68
2023/03/01 16:24:19;;;;;;;8.38;3.75;;;7.80;59.90;;;;;;9178119;19;20022;-68
2023/03/01 16:27:25;;;;;;;8.38;3.70;;;7.80;59.90;;;;;;9179662;19;20014;-68
2023/03/01 16:30:31;;;;;;;;;;;7.80;59.90;;;;;;9180392;19;20025;-68
2023/03/01 16:33:37;;;;;;;8.52;3.38;;;7.80;60.00;;;;;;9181573;19;20513;-64
2023/03/01 16:36:44;;;;;;;7.00;3.58;;;7.70;60.00;;;;;;9180864;19;20014;-64
2023/03/01 16:39:50;;;;;;;7.20;4.00;;;7.70;60.00;;;;;;9179335;19;20026;-65